createdAt,value
2019-02-07T00:07:51.159Z,50
2019-02-07T00:17:54.845Z,50
2019-02-07T00:27:58.550Z,50
2019-02-07T00:38:03.445Z,50
2019-02-07T00:48:07.150Z,50
2019-02-07T00:58:10.845Z,50
2019-02-07T01:08:14.554Z,49
2019-02-07T01:18:18.226Z,49
2019-02-07T01:28:21.925Z,49
2019-02-07T01:38:25.631Z,49
2019-02-07T01:48:29.329Z,49
2019-02-07T01:58:33.029Z,49
2019-02-07T02:08:36.756Z,49
2019-02-07T02:18:40.432Z,48
2019-02-07T02:28:44.130Z,48
2019-02-07T02:38:47.830Z,49
2019-02-07T02:48:51.524Z,48
2019-02-07T02:58:55.250Z,48
2019-02-07T03:08:58.930Z,48
2019-02-07T03:19:02.629Z,48
2019-02-07T03:29:06.979Z,48
2019-02-07T03:39:11.214Z,48
2019-02-07T03:49:14.908Z,48
2019-02-07T03:59:18.621Z,48
2019-02-07T04:09:22.333Z,48
2019-02-07T04:19:27.050Z,48
2019-02-07T04:29:30.749Z,48
2019-02-07T04:39:34.443Z,48
2019-02-07T04:49:38.150Z,48
2019-02-07T04:59:41.832Z,47
2019-02-07T05:09:45.559Z,47
2019-02-07T05:19:49.325Z,47
2019-02-07T05:29:53.019Z,47
2019-02-07T05:39:57.741Z,48
2019-02-07T05:50:01.718Z,48
2019-02-07T06:00:05.443Z,48
2019-02-07T06:10:09.154Z,48
2019-02-07T06:20:13.450Z,49
2019-02-07T06:30:17.758Z,49
2019-02-07T06:40:21.455Z,48
2019-02-07T06:50:25.145Z,49
2019-02-07T07:00:28.867Z,49
2019-02-07T07:10:32.558Z,49
2019-02-07T07:20:36.260Z,49
2019-02-07T07:30:39.961Z,48
2019-02-07T07:40:43.767Z,49
2019-02-07T07:50:48.077Z,41
2019-02-07T08:00:52.260Z,36
2019-02-07T08:10:55.959Z,35
2019-02-07T08:20:59.663Z,44
2019-02-07T08:31:03.372Z,48
2019-02-07T08:41:07.112Z,50
2019-02-07T08:51:10.816Z,53
2019-02-07T09:01:14.521Z,55
2019-02-07T09:11:18.216Z,54
2019-02-07T09:22:38.134Z,54
2019-02-07T09:32:41.840Z,54
2019-02-07T09:42:45.578Z,54
2019-02-07T09:52:49.285Z,55
2019-02-07T10:02:53.017Z,56
2019-02-07T10:12:56.742Z,56
2019-02-07T10:23:00.489Z,56
2019-02-07T10:33:04.195Z,57
2019-02-07T10:43:07.895Z,57
2019-02-07T10:53:11.689Z,57
2019-02-07T11:03:15.829Z,57
2019-02-07T11:13:19.536Z,57
2019-02-07T11:23:23.212Z,58
2019-02-07T11:33:26.911Z,58
2019-02-07T11:43:30.624Z,58
2019-02-07T11:53:34.311Z,60
2019-02-07T12:03:38.020Z,61
2019-02-07T12:13:41.723Z,62
2019-02-07T12:23:45.606Z,65
2019-02-07T12:33:49.859Z,64
2019-02-07T12:43:53.555Z,64
2019-02-07T12:53:57.244Z,64
2019-02-07T13:04:01.219Z,65
2019-02-07T13:14:04.989Z,65
2019-02-07T13:24:08.758Z,65
2019-02-07T13:34:12.538Z,64
2019-02-07T13:44:16.254Z,64
2019-02-07T13:54:20.665Z,64
2019-02-07T14:04:25.072Z,65
2019-02-07T14:14:28.764Z,66
2019-02-07T14:24:32.761Z,67
2019-02-07T14:34:36.448Z,67
2019-02-07T14:44:40.146Z,66
2019-02-07T14:54:43.835Z,66
2019-02-07T15:04:47.529Z,66
2019-02-07T15:14:51.241Z,66
2019-02-07T15:24:54.921Z,67
2019-02-07T15:34:58.620Z,68
2019-02-07T15:45:02.336Z,66
2019-02-07T15:55:06.058Z,67
2019-02-07T16:05:09.821Z,64
2019-02-07T16:15:13.534Z,64
2019-02-07T16:25:17.201Z,64
2019-02-07T16:35:20.871Z,65
2019-02-07T16:45:24.563Z,65
2019-02-07T16:55:28.257Z,65
2019-02-07T17:05:31.956Z,65
2019-02-07T17:15:35.651Z,65
2019-02-07T17:25:39.338Z,75
2019-02-07T17:35:43.056Z,88
2019-02-07T17:45:46.775Z,87
2019-02-07T17:55:50.475Z,82
2019-02-07T18:05:54.189Z,77
2019-02-07T18:15:58.151Z,75
2019-02-07T18:26:01.861Z,71
2019-02-07T18:36:05.539Z,70
2019-02-07T18:46:09.271Z,68
2019-02-07T18:56:12.987Z,68
2019-02-07T19:06:16.702Z,66
2019-02-07T19:16:20.556Z,65
2019-02-07T19:26:24.250Z,64
2019-02-07T19:36:27.956Z,63
2019-02-07T19:46:31.675Z,63
2019-02-07T19:56:35.841Z,62
2019-02-07T20:06:41.985Z,61
2019-02-07T20:16:45.702Z,60
2019-02-07T20:26:49.493Z,60
2019-02-07T20:36:53.213Z,59
2019-02-07T20:46:56.919Z,60
2019-02-07T20:57:00.640Z,59
2019-02-07T21:07:04.377Z,58
2019-02-07T21:17:08.105Z,58
2019-02-07T21:27:11.821Z,58
2019-02-07T21:37:16.192Z,57
2019-02-07T21:47:20.285Z,55
2019-02-07T21:57:24.008Z,55
2019-02-07T22:07:27.716Z,55
2019-02-07T22:17:31.396Z,54
2019-02-07T22:27:35.106Z,54
2019-02-07T22:37:38.858Z,54
2019-02-07T22:47:42.577Z,54
2019-02-07T22:57:46.283Z,53
2019-02-07T23:07:49.979Z,53
2019-02-07T23:17:53.692Z,53
2019-02-07T23:27:57.381Z,52
2019-02-07T23:38:01.069Z,53
2019-02-07T23:48:04.757Z,52
2019-02-07T23:58:08.473Z,52
